sensor_id;sensor_type;location;lat;lon;timestamp;P1;durP1;ratioP1;P2;durP2;ratioP2
55270;SDS011;41132;47.162;9.470;2023-04-01T00:01:05;1.13;;;0.95;;
55270;SDS011;41132;47.162;9.470;2023-04-01T00:03:32;1.80;;;0.93;;
55270;SDS011;41132;47.162;9.470;2023-04-01T00:05:58;2.13;;;1.10;;
55270;SDS011;41132;47.162;9.470;2023-04-01T00:08:24;2.17;;;0.98;;
55270;SDS011;41132;47.162;9.470;2023-04-01T00:10:51;1.75;;;0.90;;
55270;SDS011;41132;47.162;9.470;2023-04-01T00:13:16;0.90;;;0.70;;
55270;SDS011;41132;47.162;9.470;2023-04-01T00:15:42;0.65;;;0.65;;
55270;SDS011;41132;47.162;9.470;2023-04-01T00:18:08;1.05;;;0.80;;
55270;SDS011;41132;47.162;9.470;2023-04-01T00:20:34;2.72;;;1.08;;
55270;SDS011;41132;47.162;9.470;2023-04-01T00:23:00;1.20;;;0.90;;
55270;SDS011;41132;47.162;9.470;2023-04-01T00:25:25;2.42;;;1.02;;
55270;SDS011;41132;47.162;9.470;2023-04-01T00:27:51;3.58;;;1.30;;
55270;SDS011;41132;47.162;9.470;2023-04-01T00:30:17;2.33;;;1.20;;
55270;SDS011;41132;47.162;9.470;2023-04-01T00:32:42;1.67;;;1.05;;
55270;SDS011;41132;47.162;9.470;2023-04-01T00:35:08;1.13;;;0.90;;
55270;SDS011;41132;47.162;9.470;2023-04-01T00:37:37;2.25;;;0.88;;
55270;SDS011;41132;47.162;9.470;2023-04-01T00:40:04;2.58;;;1.00;;
55270;SDS011;41132;47.162;9.470;2023-04-01T00:42:31;1.75;;;0.90;;
55270;SDS011;41132;47.162;9.470;2023-04-01T00:44:57;1.67;;;0.88;;
55270;SDS011;41132;47.162;9.470;2023-04-01T00:47:23;1.25;;;0.80;;
55270;SDS011;41132;47.162;9.470;2023-04-01T00:49:51;1.63;;;0.95;;
55270;SDS011;41132;47.162;9.470;2023-04-01T00:52:20;1.10;;;0.88;;
55270;SDS011;41132;47.162;9.470;2023-04-01T00:54:50;3.30;;;1.33;;
55270;SDS011;41132;47.162;9.470;2023-04-01T00:57:26;2.47;;;0.90;;
55270;SDS011;41132;47.162;9.470;2023-04-01T00:59:55;0.90;;;0.80;;
55270;SDS011;41132;47.162;9.470;2023-04-01T01:02:21;1.27;;;0.80;;
55270;SDS011;41132;47.162;9.470;2023-04-01T01:04:47;2.03;;;1.17;;
55270;SDS011;41132;47.162;9.470;2023-04-01T01:13:08;1.55;;;0.80;;
55270;SDS011;41132;47.162;9.470;2023-04-01T01:15:46;1.75;;;0.80;;
55270;SDS011;41132;47.162;9.470;2023-04-01T01:18:35;1.15;;;0.70;;
55270;SDS011;41132;47.162;9.470;2023-04-01T01:26:52;0.95;;;0.80;;
55270;SDS011;41132;47.162;9.470;2023-04-01T01:37:16;1.65;;;0.88;;
55270;SDS011;41132;47.162;9.470;2023-04-01T01:39:44;0.93;;;0.60;;
55270;SDS011;41132;47.162;9.470;2023-04-01T01:42:13;0.70;;;0.70;;
55270;SDS011;41132;47.162;9.470;2023-04-01T01:44:42;1.25;;;0.80;;
55270;SDS011;41132;47.162;9.470;2023-04-01T01:47:11;1.77;;;0.95;;
55270;SDS011;41132;47.162;9.470;2023-04-01T01:49:37;3.53;;;0.93;;
55270;SDS011;41132;47.162;9.470;2023-04-01T01:52:05;2.28;;;0.90;;
55270;SDS011;41132;47.162;9.470;2023-04-01T01:54:31;2.47;;;0.90;;
55270;SDS011;41132;47.162;9.470;2023-04-01T01:57:03;1.23;;;0.73;;
55270;SDS011;41132;47.162;9.470;2023-04-01T01:59:35;1.70;;;0.88;;
55270;SDS011;41132;47.162;9.470;2023-04-01T02:02:03;2.33;;;1.10;;
55270;SDS011;41132;47.162;9.470;2023-04-01T02:04:34;3.42;;;1.20;;
55270;SDS011;41132;47.162;9.470;2023-04-01T02:07:02;1.45;;;0.93;;
55270;SDS011;41132;47.162;9.470;2023-04-01T02:09:32;2.15;;;1.10;;
55270;SDS011;41132;47.162;9.470;2023-04-01T02:12:00;1.98;;;1.08;;
55270;SDS011;41132;47.162;9.470;2023-04-01T02:14:46;1.15;;;0.82;;
55270;SDS011;41132;47.162;9.470;2023-04-01T02:17:18;1.55;;;0.85;;
55270;SDS011;41132;47.162;9.470;2023-04-01T02:19:52;2.47;;;0.98;;
55270;SDS011;41132;47.162;9.470;2023-04-01T02:22:22;3.15;;;1.40;;
55270;SDS011;41132;47.162;9.470;2023-04-01T02:24:50;2.80;;;1.15;;
55270;SDS011;41132;47.162;9.470;2023-04-01T02:27:19;1.38;;;0.90;;
55270;SDS011;41132;47.162;9.470;2023-04-01T02:29:45;1.67;;;1.08;;
55270;SDS011;41132;47.162;9.470;2023-04-01T02:32:11;1.88;;;0.90;;
55270;SDS011;41132;47.162;9.470;2023-04-01T02:34:38;2.45;;;1.00;;
55270;SDS011;41132;47.162;9.470;2023-04-01T02:37:04;2.72;;;1.00;;
55270;SDS011;41132;47.162;9.470;2023-04-01T02:39:29;1.73;;;1.00;;
55270;SDS011;41132;47.162;9.470;2023-04-01T02:41:55;1.10;;;0.90;;
55270;SDS011;41132;47.162;9.470;2023-04-01T02:44:20;1.80;;;0.85;;
55270;SDS011;41132;47.162;9.470;2023-04-01T02:46:46;1.55;;;0.90;;
55270;SDS011;41132;47.162;9.470;2023-04-01T02:49:11;1.00;;;0.80;;
55270;SDS011;41132;47.162;9.470;2023-04-01T02:51:37;2.80;;;1.00;;
55270;SDS011;41132;47.162;9.470;2023-04-01T02:54:02;1.58;;;0.80;;
55270;SDS011;41132;47.162;9.470;2023-04-01T02:56:28;0.77;;;0.65;;
55270;SDS011;41132;47.162;9.470;2023-04-01T02:58:53;1.05;;;0.70;;
55270;SDS011;41132;47.162;9.470;2023-04-01T03:01:19;2.40;;;1.05;;
55270;SDS011;41132;47.162;9.470;2023-04-01T03:03:46;0.98;;;0.75;;
55270;SDS011;41132;47.162;9.470;2023-04-01T03:06:12;0.68;;;0.68;;
55270;SDS011;41132;47.162;9.470;2023-04-01T03:08:40;1.25;;;0.90;;
55270;SDS011;41132;47.162;9.470;2023-04-01T03:11:05;1.15;;;0.82;;
55270;SDS011;41132;47.162;9.470;2023-04-01T03:13:31;1.50;;;0.90;;
55270;SDS011;41132;47.162;9.470;2023-04-01T03:15:57;2.50;;;0.95;;
55270;SDS011;41132;47.162;9.470;2023-04-01T03:18:22;1.33;;;0.80;;
55270;SDS011;41132;47.162;9.470;2023-04-01T03:20:48;1.17;;;0.80;;
55270;SDS011;41132;47.162;9.470;2023-04-01T03:23:13;1.58;;;0.93;;
55270;SDS011;41132;47.162;9.470;2023-04-01T03:25:41;2.10;;;1.05;;
55270;SDS011;41132;47.162;9.470;2023-04-01T03:28:06;3.78;;;0.90;;
55270;SDS011;41132;47.162;9.470;2023-04-01T03:30:32;1.08;;;0.70;;
55270;SDS011;41132;47.162;9.470;2023-04-01T03:32:58;0.95;;;0.80;;
55270;SDS011;41132;47.162;9.470;2023-04-01T03:35:25;1.58;;;0.90;;
55270;SDS011;41132;47.162;9.470;2023-04-01T03:37:51;1.65;;;0.75;;
55270;SDS011;41132;47.162;9.470;2023-04-01T03:40:17;0.75;;;0.70;;
55270;SDS011;41132;47.162;9.470;2023-04-01T03:42:42;0.60;;;0.60;;
55270;SDS011;41132;47.162;9.470;2023-04-01T03:45:08;1.40;;;0.70;;
55270;SDS011;41132;47.162;9.470;2023-04-01T03:47:34;2.15;;;0.90;;
55270;SDS011;41132;47.162;9.470;2023-04-01T03:50:00;1.95;;;0.90;;
55270;SDS011;41132;47.162;9.470;2023-04-01T03:52:25;1.58;;;0.90;;
55270;SDS011;41132;47.162;9.470;2023-04-01T03:54:50;1.20;;;0.77;;
55270;SDS011;41132;47.162;9.470;2023-04-01T03:57:16;2.40;;;0.85;;
55270;SDS011;41132;47.162;9.470;2023-04-01T03:59:41;1.27;;;0.90;;
55270;SDS011;41132;47.162;9.470;2023-04-01T04:02:06;1.98;;;0.70;;
55270;SDS011;41132;47.162;9.470;2023-04-01T04:04:32;1.38;;;0.82;;
55270;SDS011;41132;47.162;9.470;2023-04-01T04:06:57;0.70;;;0.70;;
55270;SDS011;41132;47.162;9.470;2023-04-01T04:09:23;1.33;;;0.90;;
55270;SDS011;41132;47.162;9.470;2023-04-01T04:11:48;1.20;;;0.80;;
55270;SDS011;41132;47.162;9.470;2023-04-01T04:14:14;1.70;;;0.90;;
55270;SDS011;41132;47.162;9.470;2023-04-01T04:16:40;1.58;;;0.90;;
55270;SDS011;41132;47.162;9.470;2023-04-01T04:19:05;0.98;;;0.65;;
55270;SDS011;41132;47.162;9.470;2023-04-01T04:21:31;0.93;;;0.70;;
55270;SDS011;41132;47.162;9.470;2023-04-01T04:23:58;0.70;;;0.68;;
55270;SDS011;41132;47.162;9.470;2023-04-01T04:26:25;0.63;;;0.60;;
55270;SDS011;41132;47.162;9.470;2023-04-01T04:28:50;0.80;;;0.80;;
55270;SDS011;41132;47.162;9.470;2023-04-01T04:31:19;1.25;;;0.77;;
55270;SDS011;41132;47.162;9.470;2023-04-01T04:33:46;18.80;;;1.27;;
55270;SDS011;41132;47.162;9.470;2023-04-01T04:36:11;2.08;;;0.90;;
55270;SDS011;41132;47.162;9.470;2023-04-01T04:38:38;1.23;;;0.80;;
55270;SDS011;41132;47.162;9.470;2023-04-01T04:41:07;0.77;;;0.65;;
55270;SDS011;41132;47.162;9.470;2023-04-01T04:43:36;1.20;;;0.70;;
55270;SDS011;41132;47.162;9.470;2023-04-01T04:46:04;1.20;;;0.68;;
55270;SDS011;41132;47.162;9.470;2023-04-01T04:48:31;1.65;;;0.90;;
55270;SDS011;41132;47.162;9.470;2023-04-01T04:50:56;0.85;;;0.60;;
55270;SDS011;41132;47.162;9.470;2023-04-01T04:53:21;0.63;;;0.57;;
55270;SDS011;41132;47.162;9.470;2023-04-01T04:55:47;0.60;;;0.60;;
55270;SDS011;41132;47.162;9.470;2023-04-01T04:58:14;0.55;;;0.55;;
55270;SDS011;41132;47.162;9.470;2023-04-01T05:00:40;1.50;;;0.90;;
55270;SDS011;41132;47.162;9.470;2023-04-01T05:03:06;0.95;;;0.70;;
55270;SDS011;41132;47.162;9.470;2023-04-01T05:05:32;1.02;;;0.80;;
55270;SDS011;41132;47.162;9.470;2023-04-01T05:07:57;1.15;;;0.80;;
55270;SDS011;41132;47.162;9.470;2023-04-01T05:10:23;1.35;;;0.80;;
55270;SDS011;41132;47.162;9.470;2023-04-01T05:12:48;0.95;;;0.85;;
55270;SDS011;41132;47.162;9.470;2023-04-01T05:15:14;2.35;;;1.00;;
55270;SDS011;41132;47.162;9.470;2023-04-01T05:17:40;1.88;;;0.90;;
55270;SDS011;41132;47.162;9.470;2023-04-01T05:20:05;0.85;;;0.70;;
55270;SDS011;41132;47.162;9.470;2023-04-01T05:22:31;2.05;;;1.20;;
55270;SDS011;41132;47.162;9.470;2023-04-01T05:24:57;2.33;;;1.10;;
55270;SDS011;41132;47.162;9.470;2023-04-01T05:27:22;1.80;;;0.98;;
55270;SDS011;41132;47.162;9.470;2023-04-01T05:29:47;1.65;;;0.90;;
55270;SDS011;41132;47.162;9.470;2023-04-01T05:32:13;3.00;;;1.00;;
55270;SDS011;41132;47.162;9.470;2023-04-01T05:34:38;1.70;;;0.90;;
55270;SDS011;41132;47.162;9.470;2023-04-01T05:37:04;3.40;;;1.10;;
55270;SDS011;41132;47.162;9.470;2023-04-01T05:39:29;2.88;;;1.45;;
55270;SDS011;41132;47.162;9.470;2023-04-01T05:41:55;1.42;;;0.90;;
55270;SDS011;41132;47.162;9.470;2023-04-01T05:44:20;2.45;;;0.98;;
55270;SDS011;41132;47.162;9.470;2023-04-01T05:46:45;1.75;;;0.90;;
55270;SDS011;41132;47.162;9.470;2023-04-01T05:49:11;4.05;;;1.10;;
55270;SDS011;41132;47.162;9.470;2023-04-01T05:51:36;2.70;;;0.93;;
55270;SDS011;41132;47.162;9.470;2023-04-01T05:54:03;4.03;;;1.00;;
55270;SDS011;41132;47.162;9.470;2023-04-01T05:56:29;2.75;;;1.15;;
55270;SDS011;41132;47.162;9.470;2023-04-01T05:58:55;1.83;;;0.90;;
55270;SDS011;41132;47.162;9.470;2023-04-01T06:01:20;3.28;;;1.27;;
55270;SDS011;41132;47.162;9.470;2023-04-01T06:03:46;2.72;;;1.10;;
55270;SDS011;41132;47.162;9.470;2023-04-01T06:06:13;3.28;;;1.20;;
55270;SDS011;41132;47.162;9.470;2023-04-01T06:08:48;3.53;;;1.20;;
55270;SDS011;41132;47.162;9.470;2023-04-01T06:30:38;0.88;;;0.80;;
55270;SDS011;41132;47.162;9.470;2023-04-01T06:38:49;1.55;;;0.90;;
55270;SDS011;41132;47.162;9.470;2023-04-01T06:41:51;1.20;;;0.80;;
55270;SDS011;41132;47.162;9.470;2023-04-01T06:47:31;1.10;;;0.90;;
55270;SDS011;41132;47.162;9.470;2023-04-01T06:50:21;1.70;;;0.93;;
55270;SDS011;41132;47.162;9.470;2023-04-01T06:55:27;2.17;;;0.90;;
55270;SDS011;41132;47.162;9.470;2023-04-01T06:58:03;2.42;;;0.90;;
55270;SDS011;41132;47.162;9.470;2023-04-01T07:00:44;2.75;;;0.98;;
55270;SDS011;41132;47.162;9.470;2023-04-01T07:06:02;1.90;;;0.90;;
55270;SDS011;41132;47.162;9.470;2023-04-01T07:40:59;1.23;;;0.93;;
55270;SDS011;41132;47.162;9.470;2023-04-01T07:59:40;1.80;;;0.98;;
55270;SDS011;41132;47.162;9.470;2023-04-01T08:05:34;0.95;;;0.85;;
55270;SDS011;41132;47.162;9.470;2023-04-01T08:08:18;2.58;;;1.20;;
55270;SDS011;41132;47.162;9.470;2023-04-01T08:21:57;2.67;;;1.10;;
55270;SDS011;41132;47.162;9.470;2023-04-01T08:24:36;2.65;;;1.00;;
55270;SDS011;41132;47.162;9.470;2023-04-01T08:27:09;1.20;;;0.73;;
55270;SDS011;41132;47.162;9.470;2023-04-01T08:29:42;1.33;;;0.82;;
55270;SDS011;41132;47.162;9.470;2023-04-01T08:32:36;2.47;;;0.90;;
55270;SDS011;41132;47.162;9.470;2023-04-01T08:38:11;3.67;;;1.40;;
55270;SDS011;41132;47.162;9.470;2023-04-01T08:40:56;1.33;;;0.90;;
55270;SDS011;41132;47.162;9.470;2023-04-01T08:46:40;1.55;;;0.80;;
55270;SDS011;41132;47.162;9.470;2023-04-01T08:49:29;0.85;;;0.80;;
55270;SDS011;41132;47.162;9.470;2023-04-01T09:00:32;0.60;;;0.60;;
55270;SDS011;41132;47.162;9.470;2023-04-01T09:14:27;0.85;;;0.68;;
55270;SDS011;41132;47.162;9.470;2023-04-01T09:17:20;0.85;;;0.70;;
55270;SDS011;41132;47.162;9.470;2023-04-01T09:20:05;0.85;;;0.70;;
55270;SDS011;41132;47.162;9.470;2023-04-01T09:28:13;1.13;;;0.80;;
55270;SDS011;41132;47.162;9.470;2023-04-01T09:31:04;1.00;;;0.73;;
55270;SDS011;41132;47.162;9.470;2023-04-01T09:37:39;0.77;;;0.50;;
55270;SDS011;41132;47.162;9.470;2023-04-01T09:51:01;0.63;;;0.63;;
55270;SDS011;41132;47.162;9.470;2023-04-01T09:53:39;1.17;;;0.90;;
55270;SDS011;41132;47.162;9.470;2023-04-01T10:05:27;1.92;;;1.00;;
55270;SDS011;41132;47.162;9.470;2023-04-01T10:11:17;2.58;;;1.08;;
55270;SDS011;41132;47.162;9.470;2023-04-01T10:19:55;1.50;;;1.00;;
55270;SDS011;41132;47.162;9.470;2023-04-01T10:36:53;3.70;;;1.05;;
55270;SDS011;41132;47.162;9.470;2023-04-01T10:39:34;1.67;;;1.00;;
55270;SDS011;41132;47.162;9.470;2023-04-01T10:45:18;1.80;;;1.05;;
55270;SDS011;41132;47.162;9.470;2023-04-01T11:01:51;1.75;;;0.90;;
55270;SDS011;41132;47.162;9.470;2023-04-01T11:10:55;1.38;;;0.90;;
55270;SDS011;41132;47.162;9.470;2023-04-01T11:13:45;0.75;;;0.70;;
55270;SDS011;41132;47.162;9.470;2023-04-01T11:36:15;1.17;;;0.75;;
55270;SDS011;41132;47.162;9.470;2023-04-01T11:43:43;1.02;;;0.90;;
55270;SDS011;41132;47.162;9.470;2023-04-01T11:51:43;2.17;;;1.00;;
55270;SDS011;41132;47.162;9.470;2023-04-01T11:54:14;1.05;;;0.95;;
55270;SDS011;41132;47.162;9.470;2023-04-01T12:03:36;1.65;;;0.88;;
55270;SDS011;41132;47.162;9.470;2023-04-01T12:24:45;1.50;;;0.90;;
55270;SDS011;41132;47.162;9.470;2023-04-01T12:30:14;1.05;;;0.80;;
55270;SDS011;41132;47.162;9.470;2023-04-01T12:55:50;1.17;;;0.63;;
55270;SDS011;41132;47.162;9.470;2023-04-01T12:58:36;1.95;;;0.82;;
55270;SDS011;41132;47.162;9.470;2023-04-01T13:03:56;0.60;;;0.60;;
55270;SDS011;41132;47.162;9.470;2023-04-01T13:06:51;0.70;;;0.70;;
55270;SDS011;41132;47.162;9.470;2023-04-01T13:12:39;0.80;;;0.80;;
55270;SDS011;41132;47.162;9.470;2023-04-01T13:18:05;1.77;;;0.90;;
55270;SDS011;41132;47.162;9.470;2023-04-01T13:23:42;0.82;;;0.70;;
55270;SDS011;41132;47.162;9.470;2023-04-01T13:26:28;1.38;;;0.80;;
55270;SDS011;41132;47.162;9.470;2023-04-01T13:34:21;0.70;;;0.70;;
55270;SDS011;41132;47.162;9.470;2023-04-01T13:45:02;0.70;;;0.70;;
55270;SDS011;41132;47.162;9.470;2023-04-01T14:16:55;0.90;;;0.80;;
55270;SDS011;41132;47.162;9.470;2023-04-01T14:25:15;1.08;;;0.80;;
55270;SDS011;41132;47.162;9.470;2023-04-01T14:28:00;0.80;;;0.73;;
55270;SDS011;41132;47.162;9.470;2023-04-01T14:33:23;0.70;;;0.70;;
55270;SDS011;41132;47.162;9.470;2023-04-01T14:38:24;0.88;;;0.70;;
55270;SDS011;41132;47.162;9.470;2023-04-01T14:41:00;1.98;;;0.73;;
55270;SDS011;41132;47.162;9.470;2023-04-01T14:49:05;0.75;;;0.75;;
55270;SDS011;41132;47.162;9.470;2023-04-01T14:51:42;0.85;;;0.80;;
55270;SDS011;41132;47.162;9.470;2023-04-01T14:54:12;0.90;;;0.82;;
55270;SDS011;41132;47.162;9.470;2023-04-01T14:56:48;0.82;;;0.80;;
55270;SDS011;41132;47.162;9.470;2023-04-01T14:59:32;0.70;;;0.70;;
55270;SDS011;41132;47.162;9.470;2023-04-01T15:13:15;2.77;;;0.83;;
55270;SDS011;41132;47.162;9.470;2023-04-01T15:16:17;0.60;;;0.60;;
55270;SDS011;41132;47.162;9.470;2023-04-01T15:24:48;1.52;;;0.70;;
55270;SDS011;41132;47.162;9.470;2023-04-01T15:38:05;0.98;;;0.85;;
55270;SDS011;41132;47.162;9.470;2023-04-01T15:51:17;0.68;;;0.68;;
55270;SDS011;41132;47.162;9.470;2023-04-01T15:56:53;1.10;;;0.80;;
55270;SDS011;41132;47.162;9.470;2023-04-01T16:02:29;0.65;;;0.63;;
55270;SDS011;41132;47.162;9.470;2023-04-01T16:14:53;1.10;;;0.80;;
55270;SDS011;41132;47.162;9.470;2023-04-01T16:22:35;4.32;;;1.10;;
55270;SDS011;41132;47.162;9.470;2023-04-01T16:30:37;2.90;;;1.30;;
55270;SDS011;41132;47.162;9.470;2023-04-01T16:33:20;2.95;;;1.30;;
55270;SDS011;41132;47.162;9.470;2023-04-01T16:35:55;6.10;;;1.67;;
55270;SDS011;41132;47.162;9.470;2023-04-01T16:41:30;3.75;;;1.40;;
55270;SDS011;41132;47.162;9.470;2023-04-01T16:44:46;2.78;;;1.20;;
55270;SDS011;41132;47.162;9.470;2023-04-01T16:46:51;4.85;;;1.77;;
55270;SDS011;41132;47.162;9.470;2023-04-01T16:49:43;3.80;;;1.70;;
55270;SDS011;41132;47.162;9.470;2023-04-01T16:52:14;3.40;;;1.48;;
55270;SDS011;41132;47.162;9.470;2023-04-01T16:54:51;5.10;;;2.60;;
55270;SDS011;41132;47.162;9.470;2023-04-01T16:57:29;2.90;;;1.23;;
55270;SDS011;41132;47.162;9.470;2023-04-01T17:11:18;7.75;;;5.38;;
55270;SDS011;41132;47.162;9.470;2023-04-01T17:18:59;4.10;;;2.25;;
55270;SDS011;41132;47.162;9.470;2023-04-01T17:27:18;1.50;;;0.90;;
55270;SDS011;41132;47.162;9.470;2023-04-01T17:32:51;5.15;;;1.92;;
55270;SDS011;41132;47.162;9.470;2023-04-01T17:35:22;4.60;;;1.90;;
55270;SDS011;41132;47.162;9.470;2023-04-01T17:43:22;5.05;;;1.85;;
55270;SDS011;41132;47.162;9.470;2023-04-01T17:45:53;8.20;;;4.63;;
55270;SDS011;41132;47.162;9.470;2023-04-01T17:54:19;7.90;;;4.68;;
55270;SDS011;41132;47.162;9.470;2023-04-01T17:57:02;6.90;;;4.00;;
55270;SDS011;41132;47.162;9.470;2023-04-01T17:59:34;5.82;;;2.30;;
55270;SDS011;41132;47.162;9.470;2023-04-01T18:02:22;3.78;;;1.88;;
55270;SDS011;41132;47.162;9.470;2023-04-01T18:05:30;3.38;;;1.52;;
55270;SDS011;41132;47.162;9.470;2023-04-01T18:20:08;4.63;;;2.00;;
55270;SDS011;41132;47.162;9.470;2023-04-01T18:22:53;5.40;;;2.40;;
55270;SDS011;41132;47.162;9.470;2023-04-01T18:30:44;6.70;;;3.42;;
55270;SDS011;41132;47.162;9.470;2023-04-01T18:33:19;5.55;;;2.42;;
55270;SDS011;41132;47.162;9.470;2023-04-01T18:39:07;2.90;;;1.50;;
55270;SDS011;41132;47.162;9.470;2023-04-01T18:48:11;4.25;;;1.70;;
55270;SDS011;41132;47.162;9.470;2023-04-01T18:56:01;3.50;;;1.27;;
55270;SDS011;41132;47.162;9.470;2023-04-01T18:58:34;2.35;;;1.15;;
55270;SDS011;41132;47.162;9.470;2023-04-01T19:09:53;1.48;;;0.85;;
55270;SDS011;41132;47.162;9.470;2023-04-01T19:12:34;0.90;;;0.80;;
55270;SDS011;41132;47.162;9.470;2023-04-01T19:15:16;0.70;;;0.70;;
55270;SDS011;41132;47.162;9.470;2023-04-01T19:17:54;1.70;;;1.00;;
55270;SDS011;41132;47.162;9.470;2023-04-01T19:20:33;1.10;;;0.82;;
55270;SDS011;41132;47.162;9.470;2023-04-01T19:26:10;1.10;;;0.80;;
55270;SDS011;41132;47.162;9.470;2023-04-01T19:34:27;1.38;;;0.70;;
55270;SDS011;41132;47.162;9.470;2023-04-01T19:37:22;1.83;;;1.00;;
55270;SDS011;41132;47.162;9.470;2023-04-01T19:39:57;1.35;;;1.00;;
55270;SDS011;41132;47.162;9.470;2023-04-01T19:42:47;0.80;;;0.70;;
55270;SDS011;41132;47.162;9.470;2023-04-01T19:48:12;0.80;;;0.80;;
55270;SDS011;41132;47.162;9.470;2023-04-01T19:55:58;1.10;;;0.98;;
55270;SDS011;41132;47.162;9.470;2023-04-01T20:01:59;1.23;;;0.90;;
55270;SDS011;41132;47.162;9.470;2023-04-01T20:04:41;1.58;;;1.08;;
55270;SDS011;41132;47.162;9.470;2023-04-01T20:07:17;1.40;;;1.00;;
55270;SDS011;41132;47.162;9.470;2023-04-01T20:09:59;3.13;;;1.23;;
55270;SDS011;41132;47.162;9.470;2023-04-01T20:12:34;4.55;;;1.42;;
55270;SDS011;41132;47.162;9.470;2023-04-01T20:17:59;3.08;;;1.52;;
55270;SDS011;41132;47.162;9.470;2023-04-01T20:20:28;2.00;;;1.10;;
55270;SDS011;41132;47.162;9.470;2023-04-01T20:25:33;1.98;;;1.20;;
55270;SDS011;41132;47.162;9.470;2023-04-01T20:28:37;4.75;;;1.30;;
55270;SDS011;41132;47.162;9.470;2023-04-01T20:33:57;2.90;;;1.30;;
55270;SDS011;41132;47.162;9.470;2023-04-01T20:37:00;2.28;;;1.17;;
55270;SDS011;41132;47.162;9.470;2023-04-01T20:42:15;2.05;;;1.10;;
55270;SDS011;41132;47.162;9.470;2023-04-01T20:50:31;3.22;;;1.10;;
55270;SDS011;41132;47.162;9.470;2023-04-01T20:53:50;2.33;;;1.23;;
55270;SDS011;41132;47.162;9.470;2023-04-01T21:04:17;3.97;;;1.40;;
55270;SDS011;41132;47.162;9.470;2023-04-01T21:12:15;2.65;;;1.30;;
55270;SDS011;41132;47.162;9.470;2023-04-01T21:20:16;3.97;;;1.60;;
55270;SDS011;41132;47.162;9.470;2023-04-01T21:22:49;2.65;;;1.10;;
55270;SDS011;41132;47.162;9.470;2023-04-01T21:28:34;1.40;;;0.90;;
55270;SDS011;41132;47.162;9.470;2023-04-01T21:53:56;2.33;;;1.15;;
55270;SDS011;41132;47.162;9.470;2023-04-01T22:02:00;3.38;;;1.30;;
55270;SDS011;41132;47.162;9.470;2023-04-01T22:04:53;2.35;;;1.15;;
55270;SDS011;41132;47.162;9.470;2023-04-01T22:07:25;2.05;;;1.02;;
55270;SDS011;41132;47.162;9.470;2023-04-01T22:10:09;3.83;;;1.20;;
55270;SDS011;41132;47.162;9.470;2023-04-01T22:12:56;1.77;;;1.00;;
55270;SDS011;41132;47.162;9.470;2023-04-01T22:18:19;2.22;;;1.23;;
55270;SDS011;41132;47.162;9.470;2023-04-01T22:29:42;2.92;;;1.10;;
55270;SDS011;41132;47.162;9.470;2023-04-01T22:31:59;3.33;;;1.10;;
55270;SDS011;41132;47.162;9.470;2023-04-01T22:37:12;2.50;;;1.42;;
55270;SDS011;41132;47.162;9.470;2023-04-01T22:39:56;2.97;;;1.20;;
55270;SDS011;41132;47.162;9.470;2023-04-01T22:50:20;2.53;;;1.20;;
55270;SDS011;41132;47.162;9.470;2023-04-01T22:52:53;1.27;;;0.90;;
55270;SDS011;41132;47.162;9.470;2023-04-01T22:55:29;3.55;;;1.35;;
55270;SDS011;41132;47.162;9.470;2023-04-01T22:57:58;2.15;;;1.02;;
55270;SDS011;41132;47.162;9.470;2023-04-01T23:03:22;2.75;;;1.30;;
55270;SDS011;41132;47.162;9.470;2023-04-01T23:05:54;2.17;;;0.90;;
55270;SDS011;41132;47.162;9.470;2023-04-01T23:08:43;2.70;;;1.33;;
55270;SDS011;41132;47.162;9.470;2023-04-01T23:16:47;4.68;;;1.42;;
55270;SDS011;41132;47.162;9.470;2023-04-01T23:25:21;4.15;;;1.40;;
55270;SDS011;41132;47.162;9.470;2023-04-01T23:28:23;2.47;;;1.27;;
55270;SDS011;41132;47.162;9.470;2023-04-01T23:31:27;3.00;;;1.40;;
55270;SDS011;41132;47.162;9.470;2023-04-01T23:33:57;2.95;;;1.35;;
55270;SDS011;41132;47.162;9.470;2023-04-01T23:36:25;2.05;;;1.20;;
55270;SDS011;41132;47.162;9.470;2023-04-01T23:38:51;2.28;;;1.10;;
55270;SDS011;41132;47.162;9.470;2023-04-01T23:41:19;3.90;;;1.77;;
55270;SDS011;41132;47.162;9.470;2023-04-01T23:43:50;2.70;;;1.48;;
55270;SDS011;41132;47.162;9.470;2023-04-01T23:46:20;3.65;;;2.15;;
55270;SDS011;41132;47.162;9.470;2023-04-01T23:48:46;3.55;;;1.50;;
55270;SDS011;41132;47.162;9.470;2023-04-01T23:51:21;4.55;;;1.60;;
55270;SDS011;41132;47.162;9.470;2023-04-01T23:54:01;4.60;;;1.70;;
55270;SDS011;41132;47.162;9.470;2023-04-01T23:56:39;4.63;;;2.20;;
55270;SDS011;41132;47.162;9.470;2023-04-01T23:59:19;5.82;;;1.85;;
